EWG72D EDDH-LOWS
Flight info
| Callsign | EWG72D |
|---|---|
| Flight time | 1h 5m |
| Altitude | 37000 |
| Route | AMLUH3B AMLUH M852 DENIX DCT ZUCKA DCT SODRO T703 ARMUT/N0433F310 T703 ARBAX/N0434F300 T108 OSTES T700 BADIT BADIT2R |
| Aircraft | A319/M-SDE3FGHIRWY/LB1 |
Departure
| Time | 2026-04-26 09:33 |
|---|---|
| Airport | Hamburg Helmut Schmidt Airport (EDDH) |
Arrival
| Time | 2026-04-26 10:39 |
|---|---|
| Airport | Salzburg Airport (LOWS) |
| Time | Latitude | Longitude | Altitude | Speed | Heading |
|---|---|---|---|---|---|
| 2026-04-26 08:36 | 53.62688 | 10.00355 | 47 ft | 0 kts | 63° |
| 2026-04-26 09:25 | 53.62683 | 10.00340 | 48 ft | 4 kts | 61° |
| 2026-04-26 09:25 | 53.62669 | 10.00301 | 47 ft | 4 kts | 52° |
| 2026-04-26 09:25 | 53.62651 | 10.00269 | 45 ft | 4 kts | 31° |
| 2026-04-26 09:26 | 53.62629 | 10.00258 | 44 ft | 3 kts | 336° |
| 2026-04-26 09:26 | 53.62622 | 10.00263 | 45 ft | 0 kts | 333° |
| 2026-04-26 09:30 | 53.62624 | 10.00262 | 45 ft | 1 kts | 333° |
| 2026-04-26 09:30 | 53.62642 | 10.00247 | 46 ft | 5 kts | 333° |
| 2026-04-26 09:30 | 53.62683 | 10.00211 | 48 ft | 7 kts | 333° |
| 2026-04-26 09:30 | 53.62702 | 10.00195 | 47 ft | 5 kts | 333° |
| 2026-04-26 09:31 | 53.62750 | 10.00153 | 48 ft | 9 kts | 332° |
| 2026-04-26 09:31 | 53.62814 | 10.00098 | 48 ft | 11 kts | 333° |
| 2026-04-26 09:31 | 53.62847 | 10.00052 | 48 ft | 3 kts | 306° |
| 2026-04-26 09:31 | 53.62844 | 9.99954 | 48 ft | 13 kts | 242° |
| 2026-04-26 09:32 | 53.62813 | 9.99809 | 45 ft | 11 kts | 281° |
| 2026-04-26 09:32 | 53.62842 | 9.99767 | 45 ft | 0 kts | 333° |
| 2026-04-26 09:32 | 53.62846 | 9.99764 | 45 ft | 3 kts | 333° |
| 2026-04-26 09:32 | 53.63054 | 9.99583 | 46 ft | 71 kts | 333° |
| 2026-04-26 09:33 | 53.63712 | 9.99012 | 50 ft | 141 kts | 333° |
| 2026-04-26 09:33 | 53.64636 | 9.98225 | 583 ft | 150 kts | 333° |
| 2026-04-26 09:33 | 53.65570 | 9.97433 | 1316 ft | 150 kts | 334° |
| 2026-04-26 09:33 | 53.66550 | 9.96615 | 1745 ft | 167 kts | 334° |
| 2026-04-26 09:34 | 53.67655 | 9.95697 | 2134 ft | 187 kts | 334° |
| 2026-04-26 09:34 | 53.68915 | 9.94752 | 2517 ft | 212 kts | 345° |
| 2026-04-26 09:34 | 53.70405 | 9.94494 | 3233 ft | 220 kts | 0° |
| 2026-04-26 09:34 | 53.71912 | 9.94597 | 4328 ft | 219 kts | 10° |
| 2026-04-26 09:35 | 53.73214 | 9.95868 | 4953 ft | 223 kts | 53° |
| 2026-04-26 09:35 | 53.73816 | 9.98356 | 5569 ft | 245 kts | 82° |
| 2026-04-26 09:35 | 53.73521 | 10.01304 | 6161 ft | 269 kts | 117° |
| 2026-04-26 09:35 | 53.72191 | 10.03586 | 6974 ft | 282 kts | 152° |
| 2026-04-26 09:36 | 53.70328 | 10.04749 | 7797 ft | 289 kts | 164° |
| 2026-04-26 09:36 | 53.68364 | 10.05646 | 8670 ft | 295 kts | 167° |
| 2026-04-26 09:36 | 53.66345 | 10.06467 | 9491 ft | 302 kts | 168° |
| 2026-04-26 09:36 | 53.64269 | 10.07291 | 10148 ft | 311 kts | 168° |
| 2026-04-26 09:37 | 53.62158 | 10.08147 | 10347 ft | 318 kts | 167° |
| 2026-04-26 09:37 | 53.59904 | 10.09087 | 10357 ft | 344 kts | 167° |
| 2026-04-26 09:37 | 53.57561 | 10.10089 | 10354 ft | 350 kts | 167° |
| 2026-04-26 09:37 | 53.55204 | 10.11115 | 10389 ft | 353 kts | 166° |
| 2026-04-26 09:38 | 53.52814 | 10.12166 | 11064 ft | 355 kts | 166° |
| 2026-04-26 09:38 | 53.50442 | 10.13213 | 11788 ft | 359 kts | 166° |
| 2026-04-26 09:38 | 53.47978 | 10.14295 | 12524 ft | 363 kts | 167° |
| 2026-04-26 09:38 | 53.45557 | 10.15353 | 13231 ft | 367 kts | 167° |
| 2026-04-26 09:39 | 53.43064 | 10.16440 | 13935 ft | 372 kts | 167° |
| 2026-04-26 09:39 | 53.40548 | 10.17536 | 14580 ft | 376 kts | 167° |
| 2026-04-26 09:39 | 53.38005 | 10.18642 | 15216 ft | 379 kts | 167° |
| 2026-04-26 09:39 | 53.35440 | 10.19755 | 15868 ft | 382 kts | 167° |
| 2026-04-26 09:40 | 53.32853 | 10.20875 | 16511 ft | 386 kts | 167° |
| 2026-04-26 09:40 | 53.30243 | 10.22000 | 17156 ft | 389 kts | 168° |
| 2026-04-26 09:40 | 53.27621 | 10.23127 | 17824 ft | 391 kts | 168° |
| 2026-04-26 09:40 | 53.24978 | 10.24262 | 18485 ft | 393 kts | 168° |
| 2026-04-26 09:41 | 53.22317 | 10.25407 | 19055 ft | 396 kts | 168° |
| 2026-04-26 09:41 | 53.19634 | 10.26560 | 19605 ft | 400 kts | 168° |
| 2026-04-26 09:41 | 53.16918 | 10.27723 | 20093 ft | 405 kts | 168° |
| 2026-04-26 09:41 | 53.14179 | 10.28896 | 20650 ft | 409 kts | 168° |
| 2026-04-26 09:42 | 53.11408 | 10.30082 | 21211 ft | 412 kts | 168° |
| 2026-04-26 09:42 | 53.08665 | 10.31259 | 21751 ft | 415 kts | 168° |
| 2026-04-26 09:42 | 53.05856 | 10.32464 | 22299 ft | 418 kts | 168° |
| 2026-04-26 09:42 | 53.03032 | 10.33671 | 22836 ft | 421 kts | 168° |
| 2026-04-26 09:43 | 53.00190 | 10.34881 | 23369 ft | 424 kts | 168° |
| 2026-04-26 09:43 | 52.97319 | 10.36099 | 23881 ft | 427 kts | 168° |
| 2026-04-26 09:43 | 52.94434 | 10.37322 | 24311 ft | 430 kts | 168° |
| 2026-04-26 09:43 | 52.91529 | 10.38552 | 24761 ft | 432 kts | 168° |
| 2026-04-26 09:44 | 52.88616 | 10.39786 | 25208 ft | 433 kts | 168° |
| 2026-04-26 09:44 | 52.85688 | 10.41027 | 25649 ft | 435 kts | 168° |
| 2026-04-26 09:44 | 52.82747 | 10.42270 | 26089 ft | 437 kts | 169° |
| 2026-04-26 09:44 | 52.79793 | 10.43511 | 26525 ft | 439 kts | 169° |
| 2026-04-26 09:45 | 52.76834 | 10.44754 | 26977 ft | 440 kts | 169° |
| 2026-04-26 09:45 | 52.73869 | 10.46001 | 27422 ft | 441 kts | 169° |
| 2026-04-26 09:45 | 52.70888 | 10.47251 | 27851 ft | 443 kts | 169° |
| 2026-04-26 09:45 | 52.67891 | 10.48507 | 28283 ft | 445 kts | 169° |
| 2026-04-26 09:46 | 52.64890 | 10.49768 | 28711 ft | 447 kts | 169° |
| 2026-04-26 09:46 | 52.61871 | 10.51036 | 29131 ft | 448 kts | 169° |
| 2026-04-26 09:46 | 52.58846 | 10.52306 | 29542 ft | 450 kts | 169° |
| 2026-04-26 09:46 | 52.55797 | 10.53581 | 29959 ft | 452 kts | 169° |
| 2026-04-26 09:47 | 52.52737 | 10.54856 | 30268 ft | 455 kts | 169° |
| 2026-04-26 09:47 | 52.49659 | 10.56134 | 30660 ft | 456 kts | 169° |
| 2026-04-26 09:47 | 52.46625 | 10.57391 | 30987 ft | 457 kts | 169° |
| 2026-04-26 09:47 | 52.43532 | 10.58668 | 31308 ft | 459 kts | 169° |
| 2026-04-26 09:48 | 52.40437 | 10.59945 | 31621 ft | 460 kts | 169° |
| 2026-04-26 09:48 | 52.37327 | 10.61230 | 31923 ft | 462 kts | 169° |
| 2026-04-26 09:48 | 52.34210 | 10.62519 | 32305 ft | 461 kts | 169° |
| 2026-04-26 09:48 | 52.31102 | 10.63806 | 32750 ft | 460 kts | 169° |
| 2026-04-26 09:49 | 52.28007 | 10.65085 | 33179 ft | 458 kts | 169° |
| 2026-04-26 09:49 | 52.24933 | 10.66356 | 33675 ft | 455 kts | 169° |
| 2026-04-26 09:49 | 52.21873 | 10.67615 | 34146 ft | 453 kts | 169° |
| 2026-04-26 09:49 | 52.18823 | 10.68862 | 34569 ft | 451 kts | 169° |
| 2026-04-26 09:50 | 52.15781 | 10.70100 | 34932 ft | 450 kts | 169° |
| 2026-04-26 09:50 | 52.12745 | 10.71328 | 35278 ft | 450 kts | 169° |
| 2026-04-26 09:50 | 52.09708 | 10.72557 | 35606 ft | 449 kts | 169° |
| 2026-04-26 09:50 | 52.06713 | 10.73775 | 35917 ft | 449 kts | 169° |
| 2026-04-26 09:51 | 52.03687 | 10.75008 | 36226 ft | 449 kts | 169° |
| 2026-04-26 09:51 | 52.00657 | 10.76244 | 36548 ft | 448 kts | 168° |
| 2026-04-26 09:51 | 51.97644 | 10.77471 | 36882 ft | 447 kts | 168° |
| 2026-04-26 09:51 | 51.94629 | 10.78701 | 37185 ft | 446 kts | 168° |
| 2026-04-26 09:52 | 51.91611 | 10.79928 | 37305 ft | 447 kts | 168° |
| 2026-04-26 09:52 | 51.82537 | 10.83577 | 37325 ft | 448 kts | 168° |
| 2026-04-26 09:53 | 51.76485 | 10.86002 | 37323 ft | 447 kts | 168° |
| 2026-04-26 09:53 | 51.70449 | 10.88421 | 37313 ft | 447 kts | 168° |
| 2026-04-26 09:54 | 51.64598 | 10.91838 | 37310 ft | 450 kts | 156° |
| 2026-04-26 09:54 | 51.58982 | 10.96298 | 37323 ft | 451 kts | 156° |
| 2026-04-26 09:55 | 51.53385 | 11.00714 | 37326 ft | 451 kts | 156° |
| 2026-04-26 09:55 | 51.47758 | 11.05129 | 37329 ft | 450 kts | 156° |
| 2026-04-26 09:56 | 51.42132 | 11.09537 | 37334 ft | 450 kts | 156° |
| 2026-04-26 09:56 | 51.36512 | 11.13931 | 37322 ft | 450 kts | 156° |
| 2026-04-26 09:57 | 51.30878 | 11.18320 | 37325 ft | 451 kts | 156° |
| 2026-04-26 09:57 | 51.25237 | 11.22710 | 37315 ft | 451 kts | 156° |
| 2026-04-26 09:58 | 51.19606 | 11.27083 | 37327 ft | 450 kts | 156° |
| 2026-04-26 09:58 | 51.14015 | 11.31404 | 37328 ft | 449 kts | 156° |
| 2026-04-26 09:59 | 51.08392 | 11.35741 | 37329 ft | 449 kts | 156° |
| 2026-04-26 09:59 | 51.02774 | 11.40064 | 37325 ft | 449 kts | 156° |
| 2026-04-26 10:00 | 50.97152 | 11.44377 | 37310 ft | 449 kts | 156° |
| 2026-04-26 10:00 | 50.91525 | 11.48670 | 37309 ft | 449 kts | 156° |
| 2026-04-26 10:01 | 50.85894 | 11.52957 | 37306 ft | 449 kts | 156° |
| 2026-04-26 10:01 | 50.80267 | 11.57241 | 37306 ft | 449 kts | 156° |
| 2026-04-26 10:02 | 50.74634 | 11.61526 | 37292 ft | 449 kts | 156° |
| 2026-04-26 10:02 | 50.69038 | 11.65757 | 37304 ft | 449 kts | 156° |
| 2026-04-26 10:03 | 50.63408 | 11.70007 | 37308 ft | 449 kts | 156° |
| 2026-04-26 10:03 | 50.57773 | 11.74247 | 37302 ft | 449 kts | 156° |
| 2026-04-26 10:04 | 50.52137 | 11.78488 | 37294 ft | 449 kts | 156° |
| 2026-04-26 10:04 | 50.46496 | 11.82708 | 37294 ft | 450 kts | 157° |
| 2026-04-26 10:05 | 50.40793 | 11.86719 | 37295 ft | 449 kts | 159° |
| 2026-04-26 10:05 | 50.35039 | 11.90515 | 37295 ft | 449 kts | 159° |
| 2026-04-26 10:06 | 50.29287 | 11.94327 | 37294 ft | 449 kts | 159° |
| 2026-04-26 10:06 | 50.23589 | 11.98165 | 37283 ft | 449 kts | 159° |
| 2026-04-26 10:07 | 50.17863 | 12.02034 | 37290 ft | 449 kts | 159° |
| 2026-04-26 10:07 | 50.12133 | 12.05881 | 37284 ft | 449 kts | 159° |
| 2026-04-26 10:08 | 50.06395 | 12.09722 | 37285 ft | 449 kts | 159° |
| 2026-04-26 10:08 | 50.00652 | 12.13559 | 37259 ft | 449 kts | 159° |
| 2026-04-26 10:09 | 49.95878 | 12.16738 | 37262 ft | 449 kts | 159° |
| 2026-04-26 10:09 | 49.89168 | 12.21179 | 37269 ft | 448 kts | 159° |
| 2026-04-26 10:10 | 49.83427 | 12.24971 | 37202 ft | 447 kts | 159° |
| 2026-04-26 10:10 | 49.80568 | 12.26858 | 36703 ft | 447 kts | 159° |
| 2026-04-26 10:10 | 49.77705 | 12.28745 | 36149 ft | 447 kts | 159° |
| 2026-04-26 10:11 | 49.74839 | 12.30630 | 35521 ft | 449 kts | 159° |
| 2026-04-26 10:11 | 49.72044 | 12.32802 | 34997 ft | 450 kts | 151° |
| 2026-04-26 10:11 | 49.69516 | 12.35530 | 34584 ft | 448 kts | 144° |
| 2026-04-26 10:11 | 49.67045 | 12.38438 | 34145 ft | 445 kts | 145° |
| 2026-04-26 10:12 | 49.64587 | 12.41315 | 33661 ft | 442 kts | 145° |
| 2026-04-26 10:12 | 49.62148 | 12.44154 | 33171 ft | 438 kts | 145° |
| 2026-04-26 10:12 | 49.59721 | 12.46971 | 32684 ft | 435 kts | 145° |
| 2026-04-26 10:12 | 49.57310 | 12.49769 | 32190 ft | 432 kts | 145° |
| 2026-04-26 10:13 | 49.54912 | 12.52550 | 31713 ft | 430 kts | 145° |
| 2026-04-26 10:13 | 49.52533 | 12.55314 | 31241 ft | 427 kts | 145° |
| 2026-04-26 10:13 | 49.50173 | 12.58058 | 30774 ft | 424 kts | 145° |
| 2026-04-26 10:13 | 49.47825 | 12.60784 | 30327 ft | 421 kts | 145° |
| 2026-04-26 10:14 | 49.45492 | 12.63484 | 29770 ft | 420 kts | 144° |
| 2026-04-26 10:14 | 49.43203 | 12.66257 | 29241 ft | 419 kts | 139° |
| 2026-04-26 10:14 | 49.41088 | 12.69319 | 28747 ft | 417 kts | 137° |
| 2026-04-26 10:14 | 49.39017 | 12.72336 | 28278 ft | 415 kts | 137° |
| 2026-04-26 10:15 | 49.36937 | 12.75385 | 27826 ft | 413 kts | 135° |
| 2026-04-26 10:15 | 49.35058 | 12.78702 | 27386 ft | 411 kts | 130° |
| 2026-04-26 10:15 | 49.33241 | 12.82077 | 26934 ft | 409 kts | 130° |
| 2026-04-26 10:15 | 49.31424 | 12.85428 | 26514 ft | 407 kts | 130° |
| 2026-04-26 10:16 | 49.29610 | 12.88751 | 26102 ft | 405 kts | 130° |
| 2026-04-26 10:16 | 49.27803 | 12.92050 | 25679 ft | 403 kts | 130° |
| 2026-04-26 10:16 | 49.25999 | 12.95323 | 25258 ft | 401 kts | 133° |
| 2026-04-26 10:16 | 49.23894 | 12.98087 | 24853 ft | 398 kts | 149° |
| 2026-04-26 10:17 | 49.21418 | 12.99872 | 24447 ft | 391 kts | 165° |
| 2026-04-26 10:17 | 49.18765 | 13.00579 | 24042 ft | 385 kts | 181° |
| 2026-04-26 10:17 | 49.16127 | 13.00222 | 23577 ft | 378 kts | 196° |
| 2026-04-26 10:17 | 49.13677 | 12.98912 | 23048 ft | 371 kts | 209° |
| 2026-04-26 10:18 | 49.11378 | 12.97242 | 22538 ft | 370 kts | 209° |
| 2026-04-26 10:18 | 49.09054 | 12.95558 | 22034 ft | 369 kts | 209° |
| 2026-04-26 10:18 | 49.06742 | 12.93880 | 21545 ft | 367 kts | 209° |
| 2026-04-26 10:18 | 49.04437 | 12.92209 | 21082 ft | 366 kts | 209° |
| 2026-04-26 10:19 | 49.02148 | 12.90546 | 20608 ft | 364 kts | 209° |
| 2026-04-26 10:19 | 48.99869 | 12.88888 | 20184 ft | 362 kts | 208° |
| 2026-04-26 10:19 | 48.97603 | 12.87243 | 19741 ft | 360 kts | 208° |
| 2026-04-26 10:19 | 48.95347 | 12.85606 | 19308 ft | 359 kts | 208° |
| 2026-04-26 10:20 | 48.93097 | 12.83982 | 18874 ft | 358 kts | 208° |
| 2026-04-26 10:20 | 48.91609 | 12.82912 | 18586 ft | 357 kts | 208° |
| 2026-04-26 10:20 | 48.88615 | 12.80768 | 17954 ft | 355 kts | 208° |
| 2026-04-26 10:20 | 48.86417 | 12.79196 | 17519 ft | 352 kts | 208° |
| 2026-04-26 10:21 | 48.84922 | 12.78125 | 17229 ft | 350 kts | 208° |
| 2026-04-26 10:21 | 48.82017 | 12.76044 | 16670 ft | 347 kts | 208° |
| 2026-04-26 10:21 | 48.79842 | 12.74488 | 16260 ft | 344 kts | 208° |
| 2026-04-26 10:21 | 48.77690 | 12.72950 | 15855 ft | 341 kts | 208° |
| 2026-04-26 10:22 | 48.75546 | 12.71415 | 15505 ft | 340 kts | 208° |
| 2026-04-26 10:22 | 48.74104 | 12.70384 | 15310 ft | 339 kts | 208° |
| 2026-04-26 10:22 | 48.71940 | 12.69084 | 15020 ft | 341 kts | 198° |
| 2026-04-26 10:22 | 48.69595 | 12.68513 | 14734 ft | 342 kts | 184° |
| 2026-04-26 10:23 | 48.67223 | 12.68757 | 14455 ft | 343 kts | 172° |
| 2026-04-26 10:23 | 48.64870 | 12.69381 | 14187 ft | 343 kts | 172° |
| 2026-04-26 10:23 | 48.62526 | 12.69997 | 13880 ft | 341 kts | 172° |
| 2026-04-26 10:23 | 48.60194 | 12.70607 | 13562 ft | 340 kts | 172° |
| 2026-04-26 10:24 | 48.57868 | 12.71175 | 13229 ft | 336 kts | 173° |
| 2026-04-26 10:24 | 48.55567 | 12.71679 | 12916 ft | 334 kts | 173° |
| 2026-04-26 10:24 | 48.53267 | 12.72151 | 12606 ft | 332 kts | 174° |
| 2026-04-26 10:24 | 48.50981 | 12.72614 | 12283 ft | 330 kts | 174° |
| 2026-04-26 10:25 | 48.48709 | 12.73079 | 12006 ft | 329 kts | 174° |
| 2026-04-26 10:25 | 48.46450 | 12.73549 | 11720 ft | 327 kts | 174° |
| 2026-04-26 10:25 | 48.44229 | 12.74018 | 11450 ft | 326 kts | 174° |
| 2026-04-26 10:25 | 48.41990 | 12.74495 | 11185 ft | 324 kts | 174° |
| 2026-04-26 10:26 | 48.39762 | 12.74981 | 10916 ft | 323 kts | 172° |
| 2026-04-26 10:26 | 48.37587 | 12.75747 | 10649 ft | 319 kts | 168° |
| 2026-04-26 10:26 | 48.35441 | 12.76536 | 10384 ft | 315 kts | 167° |
| 2026-04-26 10:26 | 48.33327 | 12.77313 | 10118 ft | 311 kts | 167° |
| 2026-04-26 10:27 | 48.31241 | 12.78074 | 9824 ft | 306 kts | 168° |
| 2026-04-26 10:27 | 48.29180 | 12.78820 | 9525 ft | 304 kts | 168° |
| 2026-04-26 10:27 | 48.27133 | 12.79560 | 9236 ft | 301 kts | 168° |
| 2026-04-26 10:27 | 48.25102 | 12.80292 | 8947 ft | 299 kts | 168° |
| 2026-04-26 10:28 | 48.23080 | 12.81021 | 8631 ft | 297 kts | 168° |
| 2026-04-26 10:28 | 48.21073 | 12.81748 | 8327 ft | 296 kts | 168° |
| 2026-04-26 10:28 | 48.19081 | 12.82474 | 8025 ft | 293 kts | 168° |
| 2026-04-26 10:28 | 48.17106 | 12.83204 | 7729 ft | 291 kts | 166° |
| 2026-04-26 10:29 | 48.15281 | 12.84478 | 7424 ft | 291 kts | 148° |
| 2026-04-26 10:29 | 48.13582 | 12.86118 | 7127 ft | 289 kts | 148° |
| 2026-04-26 10:29 | 48.11896 | 12.87753 | 6835 ft | 288 kts | 148° |
| 2026-04-26 10:29 | 48.10220 | 12.89380 | 6537 ft | 286 kts | 148° |
| 2026-04-26 10:30 | 48.08555 | 12.90996 | 6225 ft | 285 kts | 148° |
| 2026-04-26 10:30 | 48.06917 | 12.92586 | 5919 ft | 284 kts | 149° |
| 2026-04-26 10:30 | 48.05247 | 12.94207 | 5603 ft | 282 kts | 149° |
| 2026-04-26 10:30 | 48.03634 | 12.95769 | 5295 ft | 277 kts | 149° |
| 2026-04-26 10:31 | 48.02042 | 12.97311 | 5051 ft | 267 kts | 149° |
| 2026-04-26 10:31 | 48.00523 | 12.98783 | 4999 ft | 251 kts | 150° |
| 2026-04-26 10:31 | 47.99115 | 13.00145 | 4998 ft | 234 kts | 149° |
| 2026-04-26 10:31 | 47.97715 | 13.01223 | 4993 ft | 218 kts | 162° |
| 2026-04-26 10:32 | 47.96312 | 13.01814 | 4999 ft | 205 kts | 173° |
| 2026-04-26 10:32 | 47.94940 | 13.02223 | 5032 ft | 193 kts | 172° |
| 2026-04-26 10:32 | 47.93688 | 13.02614 | 5011 ft | 172 kts | 172° |
| 2026-04-26 10:32 | 47.92559 | 13.02967 | 5007 ft | 162 kts | 173° |
| 2026-04-26 10:33 | 47.91474 | 13.03300 | 5008 ft | 158 kts | 173° |
| 2026-04-26 10:33 | 47.90408 | 13.03624 | 4999 ft | 155 kts | 173° |
| 2026-04-26 10:33 | 47.89354 | 13.03945 | 4999 ft | 154 kts | 173° |
| 2026-04-26 10:33 | 47.88324 | 13.04264 | 5010 ft | 148 kts | 174° |
| 2026-04-26 10:34 | 47.87330 | 13.04561 | 4886 ft | 144 kts | 173° |
| 2026-04-26 10:34 | 47.86363 | 13.04843 | 4716 ft | 142 kts | 174° |
| 2026-04-26 10:34 | 47.85394 | 13.05133 | 4548 ft | 141 kts | 172° |
| 2026-04-26 10:34 | 47.84428 | 13.05436 | 4353 ft | 142 kts | 172° |
| 2026-04-26 10:35 | 47.83465 | 13.05763 | 4193 ft | 142 kts | 172° |
| 2026-04-26 10:35 | 47.82507 | 13.06130 | 3983 ft | 143 kts | 169° |
| 2026-04-26 10:35 | 47.81538 | 13.06476 | 3756 ft | 144 kts | 170° |
| 2026-04-26 10:35 | 47.80564 | 13.06822 | 3579 ft | 144 kts | 169° |
| 2026-04-26 10:36 | 47.79594 | 13.07139 | 3355 ft | 142 kts | 170° |
| 2026-04-26 10:36 | 47.78627 | 13.07419 | 3115 ft | 142 kts | 174° |
| 2026-04-26 10:36 | 47.77643 | 13.07454 | 2872 ft | 142 kts | 188° |
| 2026-04-26 10:36 | 47.76702 | 13.07129 | 2710 ft | 139 kts | 209° |
| 2026-04-26 10:37 | 47.75901 | 13.06366 | 2527 ft | 137 kts | 222° |
| 2026-04-26 10:37 | 47.75281 | 13.05311 | 2363 ft | 136 kts | 241° |
| 2026-04-26 10:37 | 47.75122 | 13.03997 | 2113 ft | 129 kts | 292° |
| 2026-04-26 10:37 | 47.75686 | 13.02993 | 2079 ft | 130 kts | 321° |
| 2026-04-26 10:38 | 47.76427 | 13.02265 | 1865 ft | 129 kts | 333° |
| 2026-04-26 10:38 | 47.77243 | 13.01724 | 1689 ft | 128 kts | 338° |
| 2026-04-26 10:38 | 47.78061 | 13.01207 | 1515 ft | 126 kts | 334° |
| 2026-04-26 10:38 | 47.78854 | 13.00700 | 1419 ft | 115 kts | 336° |
| 2026-04-26 10:39 | 47.79461 | 13.00314 | 1418 ft | 71 kts | 337° |
| 2026-04-26 10:39 | 47.79778 | 13.00113 | 1415 ft | 38 kts | 337° |
| 2026-04-26 10:39 | 47.80019 | 12.99960 | 1417 ft | 33 kts | 336° |
| 2026-04-26 10:39 | 47.80184 | 12.99855 | 1415 ft | 16 kts | 337° |
| 2026-04-26 10:40 | 47.80269 | 12.99730 | 1418 ft | 19 kts | 289° |
| 2026-04-26 10:40 | 47.80198 | 12.99594 | 1415 ft | 21 kts | 180° |
| 2026-04-26 10:40 | 47.80066 | 12.99665 | 1415 ft | 20 kts | 156° |
| 2026-04-26 10:40 | 47.79937 | 12.99747 | 1417 ft | 20 kts | 157° |
| 2026-04-26 10:41 | 47.79807 | 12.99829 | 1416 ft | 20 kts | 156° |
| 2026-04-26 10:41 | 47.79686 | 12.99906 | 1416 ft | 15 kts | 156° |
| 2026-04-26 10:41 | 47.79601 | 12.99959 | 1415 ft | 11 kts | 158° |
| 2026-04-26 10:41 | 47.79520 | 13.00009 | 1417 ft | 16 kts | 156° |
| 2026-04-26 10:42 | 47.79419 | 13.00077 | 1417 ft | 15 kts | 158° |
| 2026-04-26 10:42 | 47.79321 | 13.00137 | 1416 ft | 16 kts | 158° |
| 2026-04-26 10:42 | 47.79224 | 13.00199 | 1419 ft | 15 kts | 156° |
| 2026-04-26 10:42 | 47.79126 | 13.00260 | 1418 ft | 16 kts | 158° |
| 2026-04-26 10:43 | 47.79029 | 13.00323 | 1415 ft | 15 kts | 156° |
| 2026-04-26 10:43 | 47.78955 | 13.00316 | 1422 ft | 8 kts | 244° |
| 2026-04-26 10:43 | 47.78954 | 13.00216 | 1422 ft | 11 kts | 274° |
| 2026-04-26 10:43 | 47.78988 | 13.00134 | 1422 ft | 7 kts | 334° |
| 2026-04-26 10:44 | 47.79025 | 13.00112 | 1422 ft | 7 kts | 336° |
| 2026-04-26 10:44 | 47.79074 | 13.00068 | 1422 ft | 8 kts | 308° |
| 2026-04-26 10:44 | 47.79084 | 12.99999 | 1422 ft | 2 kts | 282° |
| 2026-04-26 10:44 | 47.79087 | 12.99981 | 1422 ft | 2 kts | 285° |
| 2026-04-26 10:45 | 47.79089 | 12.99966 | 1422 ft | 1 kts | 283° |
| 2026-04-26 10:45 | 47.79091 | 12.99955 | 1422 ft | 1 kts | 283° |
| 2026-04-26 10:45 | 47.79091 | 12.99954 | 1422 ft | 0 kts | 283° |